sensor_id;sensor_type;location;lat;lon;timestamp;pressure;altitude;pressure_sealevel;temperature;humidity
19594;BME280;9944;48.240;16.478;2023-07-28T00:00:56;99124.84;;;20.62;46.04
19594;BME280;9944;48.240;16.478;2023-07-28T00:05:00;99133.09;;;20.59;46.30
19594;BME280;9944;48.240;16.478;2023-07-28T00:09:05;99121.47;;;20.58;46.85
19594;BME280;9944;48.240;16.478;2023-07-28T00:13:09;99124.25;;;20.56;47.05
19594;BME280;9944;48.240;16.478;2023-07-28T00:17:12;99124.44;;;20.53;47.19
19594;BME280;9944;48.240;16.478;2023-07-28T00:21:16;99124.59;;;20.50;47.09
19594;BME280;9944;48.240;16.478;2023-07-28T00:25:21;99122.00;;;20.49;47.38
19594;BME280;9944;48.240;16.478;2023-07-28T00:29:42;99131.88;;;20.48;47.71
19594;BME280;9944;48.240;16.478;2023-07-28T00:33:46;99134.63;;;20.47;47.75
19594;BME280;9944;48.240;16.478;2023-07-28T00:37:49;99134.63;;;20.47;47.88
19594;BME280;9944;48.240;16.478;2023-07-28T00:41:54;99135.50;;;20.47;47.77
19594;BME280;9944;48.240;16.478;2023-07-28T00:45:57;99133.66;;;20.48;47.87
19594;BME280;9944;48.240;16.478;2023-07-28T00:50:02;99127.44;;;20.47;48.27
19594;BME280;9944;48.240;16.478;2023-07-28T00:54:05;99132.81;;;20.47;48.38
19594;BME280;9944;48.240;16.478;2023-07-28T00:58:10;99121.13;;;20.48;48.75
19594;BME280;9944;48.240;16.478;2023-07-28T01:02:14;99124.59;;;20.50;48.57
19594;BME280;9944;48.240;16.478;2023-07-28T01:06:23;99126.50;;;20.48;48.81
19594;BME280;9944;48.240;16.478;2023-07-28T01:10:31;99118.47;;;20.48;48.87
19594;BME280;9944;48.240;16.478;2023-07-28T01:14:36;99117.66;;;20.46;49.06
19594;BME280;9944;48.240;16.478;2023-07-28T01:18:40;99119.56;;;20.44;49.11
19594;BME280;9944;48.240;16.478;2023-07-28T01:22:51;99117.94;;;20.42;49.47
19594;BME280;9944;48.240;16.478;2023-07-28T01:27:03;99127.69;;;20.43;49.27
19594;BME280;9944;48.240;16.478;2023-07-28T01:31:07;99109.81;;;20.43;49.48
19594;BME280;9944;48.240;16.478;2023-07-28T01:35:11;99107.13;;;20.43;49.76
19594;BME280;9944;48.240;16.478;2023-07-28T01:39:15;99116.03;;;20.44;49.72
19594;BME280;9944;48.240;16.478;2023-07-28T01:43:19;99108.84;;;20.44;50.05
19594;BME280;9944;48.240;16.478;2023-07-28T01:47:23;99110.56;;;20.45;50.32
19594;BME280;9944;48.240;16.478;2023-07-28T01:51:27;99112.28;;;20.46;50.49
19594;BME280;9944;48.240;16.478;2023-07-28T01:55:31;99101.47;;;20.48;50.96
19594;BME280;9944;48.240;16.478;2023-07-28T01:59:37;99097.09;;;20.47;50.91
19594;BME280;9944;48.240;16.478;2023-07-28T02:03:40;99094.31;;;20.48;51.20
19594;BME280;9944;48.240;16.478;2023-07-28T02:07:44;99095.19;;;20.49;51.82
19594;BME280;9944;48.240;16.478;2023-07-28T02:11:48;99088.00;;;20.49;51.41
19594;BME280;9944;48.240;16.478;2023-07-28T02:15:52;99087.13;;;20.49;51.28
19594;BME280;9944;48.240;16.478;2023-07-28T02:19:56;99083.59;;;20.48;51.41
19594;BME280;9944;48.240;16.478;2023-07-28T02:24:00;99094.31;;;20.48;51.46
19594;BME280;9944;48.240;16.478;2023-07-28T02:28:03;99082.03;;;20.44;51.66
19594;BME280;9944;48.240;16.478;2023-07-28T02:32:08;99092.75;;;20.44;51.87
19594;BME280;9944;48.240;16.478;2023-07-28T02:36:12;99099.00;;;20.45;52.12
19594;BME280;9944;48.240;16.478;2023-07-28T02:40:16;99096.19;;;20.46;52.25
19594;BME280;9944;48.240;16.478;2023-07-28T02:44:19;99090.25;;;20.41;52.19
19594;BME280;9944;48.240;16.478;2023-07-28T02:48:24;99088.69;;;20.37;52.10
19594;BME280;9944;48.240;16.478;2023-07-28T02:52:27;99081.69;;;20.34;52.17
19594;BME280;9944;48.240;16.478;2023-07-28T02:56:31;99084.44;;;20.33;52.14
19594;BME280;9944;48.240;16.478;2023-07-28T03:00:44;99077.19;;;20.35;51.90
19594;BME280;9944;48.240;16.478;2023-07-28T03:04:55;99083.41;;;20.35;52.28
19594;BME280;9944;48.240;16.478;2023-07-28T03:09:16;99091.53;;;20.34;52.48
19594;BME280;9944;48.240;16.478;2023-07-28T03:13:36;99077.19;;;20.35;52.65
19594;BME280;9944;48.240;16.478;2023-07-28T03:17:40;99065.69;;;20.33;52.54
19594;BME280;9944;48.240;16.478;2023-07-28T03:21:45;99065.09;;;20.28;52.78
19594;BME280;9944;48.240;16.478;2023-07-28T03:25:49;99070.50;;;20.26;52.91
19594;BME280;9944;48.240;16.478;2023-07-28T03:29:52;99070.56;;;20.25;53.12
19594;BME280;9944;48.240;16.478;2023-07-28T03:33:57;99069.88;;;20.21;53.19
19594;BME280;9944;48.240;16.478;2023-07-28T03:38:02;99058.31;;;20.21;53.53
19594;BME280;9944;48.240;16.478;2023-07-28T03:42:07;99061.22;;;20.16;53.30
19594;BME280;9944;48.240;16.478;2023-07-28T03:46:11;99068.72;;;20.09;53.56
19594;BME280;9944;48.240;16.478;2023-07-28T03:50:14;99070.81;;;20.04;53.59
19594;BME280;9944;48.240;16.478;2023-07-28T03:54:21;99073.63;;;20.01;53.47
19594;BME280;9944;48.240;16.478;2023-07-28T03:58:25;99057.75;;;19.98;53.67
19594;BME280;9944;48.240;16.478;2023-07-28T04:02:29;99042.00;;;19.92;53.39
19594;BME280;9944;48.240;16.478;2023-07-28T04:06:42;99053.06;;;19.86;53.26
19594;BME280;9944;48.240;16.478;2023-07-28T04:10:47;99054.16;;;19.81;53.05
19594;BME280;9944;48.240;16.478;2023-07-28T04:14:51;99066.69;;;19.81;52.84
19594;BME280;9944;48.240;16.478;2023-07-28T04:18:58;99064.09;;;19.79;53.04
19594;BME280;9944;48.240;16.478;2023-07-28T04:23:01;99068.69;;;19.77;52.76
19594;BME280;9944;48.240;16.478;2023-07-28T04:27:12;99067.63;;;19.80;52.44
19594;BME280;9944;48.240;16.478;2023-07-28T04:31:16;99071.34;;;19.77;52.82
19594;BME280;9944;48.240;16.478;2023-07-28T04:35:29;99057.25;;;19.74;52.67
19594;BME280;9944;48.240;16.478;2023-07-28T04:39:47;99055.44;;;19.74;52.63
19594;BME280;9944;48.240;16.478;2023-07-28T04:43:52;99065.22;;;19.75;52.45
19594;BME280;9944;48.240;16.478;2023-07-28T04:47:59;99069.59;;;19.76;52.32
19594;BME280;9944;48.240;16.478;2023-07-28T04:52:03;99073.94;;;19.79;52.23
19594;BME280;9944;48.240;16.478;2023-07-28T04:56:24;99072.91;;;19.81;51.88
19594;BME280;9944;48.240;16.478;2023-07-28T05:00:29;99074.81;;;19.79;52.01
19594;BME280;9944;48.240;16.478;2023-07-28T05:04:33;99087.34;;;19.79;52.18
19594;BME280;9944;48.240;16.478;2023-07-28T05:08:39;99090.09;;;19.77;51.88
19594;BME280;9944;48.240;16.478;2023-07-28T05:12:42;99086.66;;;19.75;51.82
19594;BME280;9944;48.240;16.478;2023-07-28T05:16:47;99089.47;;;19.72;51.79
19594;BME280;9944;48.240;16.478;2023-07-28T05:21:16;99096.53;;;19.73;51.94
19594;BME280;9944;48.240;16.478;2023-07-28T05:25:19;99088.34;;;19.76;52.15
19594;BME280;9944;48.240;16.478;2023-07-28T05:29:22;99091.03;;;19.76;51.90
19594;BME280;9944;48.240;16.478;2023-07-28T05:33:30;99096.53;;;19.73;51.83
19594;BME280;9944;48.240;16.478;2023-07-28T05:37:37;99094.84;;;19.72;51.73
19594;BME280;9944;48.240;16.478;2023-07-28T05:41:40;99105.63;;;19.71;51.78
19594;BME280;9944;48.240;16.478;2023-07-28T05:45:46;99101.91;;;19.73;52.07
19594;BME280;9944;48.240;16.478;2023-07-28T05:49:52;99097.34;;;19.75;51.93
19594;BME280;9944;48.240;16.478;2023-07-28T05:53:57;99097.28;;;19.77;51.68
19594;BME280;9944;48.240;16.478;2023-07-28T05:58:01;99100.66;;;19.80;51.96
19594;BME280;9944;48.240;16.478;2023-07-28T06:02:06;99094.09;;;19.86;51.89
19594;BME280;9944;48.240;16.478;2023-07-28T06:06:28;99101.00;;;19.90;52.05
19594;BME280;9944;48.240;16.478;2023-07-28T06:10:32;99096.34;;;19.94;52.04
19594;BME280;9944;48.240;16.478;2023-07-28T06:14:35;99099.50;;;20.02;52.24
19594;BME280;9944;48.240;16.478;2023-07-28T06:18:41;99093.72;;;20.10;52.08
19594;BME280;9944;48.240;16.478;2023-07-28T06:22:50;99096.59;;;20.23;51.82
19594;BME280;9944;48.240;16.478;2023-07-28T06:26:54;99104.31;;;20.29;51.59
19594;BME280;9944;48.240;16.478;2023-07-28T06:30:58;99098.47;;;20.38;51.88
19594;BME280;9944;48.240;16.478;2023-07-28T06:35:03;99101.75;;;20.43;51.34
19594;BME280;9944;48.240;16.478;2023-07-28T06:39:08;99105.06;;;20.48;51.60
19594;BME280;9944;48.240;16.478;2023-07-28T06:43:12;99109.88;;;20.58;51.16
19594;BME280;9944;48.240;16.478;2023-07-28T06:47:15;99103.22;;;20.65;51.09
19594;BME280;9944;48.240;16.478;2023-07-28T06:51:19;99090.25;;;20.73;50.89
19594;BME280;9944;48.240;16.478;2023-07-28T06:55:24;99086.88;;;20.85;50.88
19594;BME280;9944;48.240;16.478;2023-07-28T06:59:27;99089.19;;;21.07;49.94
19594;BME280;9944;48.240;16.478;2023-07-28T07:03:31;99086.38;;;21.25;50.07
19594;BME280;9944;48.240;16.478;2023-07-28T07:07:37;99086.53;;;21.52;49.91
19594;BME280;9944;48.240;16.478;2023-07-28T07:11:42;99094.41;;;21.85;49.67
19594;BME280;9944;48.240;16.478;2023-07-28T07:15:46;99098.91;;;22.14;48.67
19594;BME280;9944;48.240;16.478;2023-07-28T07:19:50;99099.84;;;22.41;48.32
19594;BME280;9944;48.240;16.478;2023-07-28T07:23:53;99106.06;;;22.71;47.07
19594;BME280;9944;48.240;16.478;2023-07-28T07:28:01;99105.72;;;22.90;46.77
19594;BME280;9944;48.240;16.478;2023-07-28T07:32:07;99095.06;;;23.15;46.20
19594;BME280;9944;48.240;16.478;2023-07-28T07:36:12;99090.94;;;23.37;45.76
19594;BME280;9944;48.240;16.478;2023-07-28T07:40:16;99092.91;;;23.61;45.00
19594;BME280;9944;48.240;16.478;2023-07-28T07:44:21;99094.97;;;23.83;44.90
19594;BME280;9944;48.240;16.478;2023-07-28T07:48:25;99096.59;;;23.98;44.16
19594;BME280;9944;48.240;16.478;2023-07-28T07:52:28;99091.97;;;24.13;44.51
19594;BME280;9944;48.240;16.478;2023-07-28T07:56:32;99084.06;;;24.36;43.93
19594;BME280;9944;48.240;16.478;2023-07-28T08:00:37;99074.16;;;24.60;44.49
19594;BME280;9944;48.240;16.478;2023-07-28T08:04:41;99078.00;;;24.82;43.05
19594;BME280;9944;48.240;16.478;2023-07-28T08:08:45;99075.03;;;24.98;43.20
19594;BME280;9944;48.240;16.478;2023-07-28T08:12:49;99080.97;;;25.14;42.48
19594;BME280;9944;48.240;16.478;2023-07-28T08:16:54;99072.25;;;25.35;42.98
19594;BME280;9944;48.240;16.478;2023-07-28T08:20:57;99074.38;;;25.54;42.06
19594;BME280;9944;48.240;16.478;2023-07-28T08:25:01;99066.56;;;25.73;41.90
19594;BME280;9944;48.240;16.478;2023-07-28T08:29:04;99062.66;;;26.00;41.99
19594;BME280;9944;48.240;16.478;2023-07-28T08:33:09;99062.31;;;26.16;41.45
19594;BME280;9944;48.240;16.478;2023-07-28T08:37:13;99059.47;;;26.40;41.64
19594;BME280;9944;48.240;16.478;2023-07-28T08:41:16;99061.69;;;26.58;41.82
19594;BME280;9944;48.240;16.478;2023-07-28T08:45:20;99058.16;;;26.78;41.20
19594;BME280;9944;48.240;16.478;2023-07-28T08:49:28;99066.28;;;26.89;41.08
19594;BME280;9944;48.240;16.478;2023-07-28T08:53:33;99066.44;;;27.09;41.53
19594;BME280;9944;48.240;16.478;2023-07-28T08:57:37;99063.44;;;27.23;40.50
19594;BME280;9944;48.240;16.478;2023-07-28T09:01:40;99077.22;;;27.32;40.09
19594;BME280;9944;48.240;16.478;2023-07-28T09:05:46;99062.66;;;27.33;39.72
19594;BME280;9944;48.240;16.478;2023-07-28T09:09:58;99077.88;;;27.45;40.29
19594;BME280;9944;48.240;16.478;2023-07-28T09:14:02;99074.03;;;27.47;39.69
19594;BME280;9944;48.240;16.478;2023-07-28T09:18:08;99084.50;;;27.52;39.72
19594;BME280;9944;48.240;16.478;2023-07-28T09:22:13;99073.38;;;27.55;39.71
19594;BME280;9944;48.240;16.478;2023-07-28T09:26:17;99084.16;;;27.66;40.23
19594;BME280;9944;48.240;16.478;2023-07-28T09:30:20;99078.72;;;27.78;39.95
19594;BME280;9944;48.240;16.478;2023-07-28T09:34:25;99082.59;;;27.85;39.07
19594;BME280;9944;48.240;16.478;2023-07-28T09:38:31;99074.53;;;27.95;39.20
19594;BME280;9944;48.240;16.478;2023-07-28T09:42:36;99063.16;;;28.11;39.17
19594;BME280;9944;48.240;16.478;2023-07-28T09:46:50;99062.06;;;28.23;38.68
19594;BME280;9944;48.240;16.478;2023-07-28T09:50:54;99059.94;;;28.27;38.62
19594;BME280;9944;48.240;16.478;2023-07-28T09:55:04;99056.81;;;28.31;38.30
19594;BME280;9944;48.240;16.478;2023-07-28T09:59:11;99056.41;;;28.36;38.31
19594;BME280;9944;48.240;16.478;2023-07-28T10:03:16;99053.81;;;28.34;37.90
19594;BME280;9944;48.240;16.478;2023-07-28T10:07:20;99053.34;;;28.29;37.88
19594;BME280;9944;48.240;16.478;2023-07-28T10:11:27;99064.38;;;28.28;38.38
19594;BME280;9944;48.240;16.478;2023-07-28T10:15:31;99048.38;;;28.34;38.54
19594;BME280;9944;48.240;16.478;2023-07-28T10:19:36;99046.72;;;28.43;38.46
19594;BME280;9944;48.240;16.478;2023-07-28T10:23:44;99048.47;;;28.54;38.31
19594;BME280;9944;48.240;16.478;2023-07-28T10:27:50;99056.94;;;28.70;38.56
19594;BME280;9944;48.240;16.478;2023-07-28T10:31:55;99043.66;;;28.87;37.86
19594;BME280;9944;48.240;16.478;2023-07-28T10:36:08;99041.09;;;28.95;38.63
19594;BME280;9944;48.240;16.478;2023-07-28T10:40:30;99048.84;;;29.09;37.92
19594;BME280;9944;48.240;16.478;2023-07-28T10:44:37;99039.69;;;29.20;38.23
19594;BME280;9944;48.240;16.478;2023-07-28T10:48:42;99041.69;;;29.28;36.79
19594;BME280;9944;48.240;16.478;2023-07-28T10:52:46;99027.09;;;29.29;37.22
19594;BME280;9944;48.240;16.478;2023-07-28T10:56:50;99039.97;;;29.27;37.92
19594;BME280;9944;48.240;16.478;2023-07-28T11:00:55;99034.50;;;29.37;37.48
19594;BME280;9944;48.240;16.478;2023-07-28T11:04:58;99034.50;;;29.46;36.54
19594;BME280;9944;48.240;16.478;2023-07-28T11:09:02;99044.53;;;29.56;37.83
19594;BME280;9944;48.240;16.478;2023-07-28T11:13:08;99047.41;;;29.44;37.18
19594;BME280;9944;48.240;16.478;2023-07-28T11:17:32;99054.28;;;29.29;37.66
19594;BME280;9944;48.240;16.478;2023-07-28T11:21:36;99049.25;;;29.24;37.81
19594;BME280;9944;48.240;16.478;2023-07-28T11:25:41;99045.09;;;29.30;38.24
19594;BME280;9944;48.240;16.478;2023-07-28T11:29:44;99046.25;;;29.27;37.77
19594;BME280;9944;48.240;16.478;2023-07-28T11:33:50;99041.53;;;29.29;38.13
19594;BME280;9944;48.240;16.478;2023-07-28T11:37:54;99041.38;;;29.21;37.97
19594;BME280;9944;48.240;16.478;2023-07-28T11:41:59;99025.97;;;29.22;37.88
19594;BME280;9944;48.240;16.478;2023-07-28T11:46:02;99032.25;;;29.32;38.11
19594;BME280;9944;48.240;16.478;2023-07-28T11:50:08;99035.94;;;29.41;38.16
19594;BME280;9944;48.240;16.478;2023-07-28T11:54:12;99036.78;;;29.61;38.25
19594;BME280;9944;48.240;16.478;2023-07-28T11:58:16;99031.91;;;29.74;36.92
19594;BME280;9944;48.240;16.478;2023-07-28T12:02:25;99041.06;;;29.73;37.62
19594;BME280;9944;48.240;16.478;2023-07-28T12:06:31;99033.75;;;29.74;37.62
19594;BME280;9944;48.240;16.478;2023-07-28T12:10:35;99027.28;;;29.84;37.72
19594;BME280;9944;48.240;16.478;2023-07-28T12:14:42;99038.66;;;29.98;36.75
19594;BME280;9944;48.240;16.478;2023-07-28T12:18:57;99027.78;;;30.07;36.28
19594;BME280;9944;48.240;16.478;2023-07-28T12:23:02;99028.34;;;30.11;35.97
19594;BME280;9944;48.240;16.478;2023-07-28T12:27:10;99015.59;;;30.02;35.81
19594;BME280;9944;48.240;16.478;2023-07-28T12:31:15;99030.34;;;29.99;36.32
19594;BME280;9944;48.240;16.478;2023-07-28T12:35:18;99026.81;;;29.89;36.01
19594;BME280;9944;48.240;16.478;2023-07-28T12:39:28;99039.63;;;29.69;35.78
19594;BME280;9944;48.240;16.478;2023-07-28T12:43:36;99045.94;;;29.40;37.17
19594;BME280;9944;48.240;16.478;2023-07-28T12:47:42;99061.88;;;29.15;36.64
19594;BME280;9944;48.240;16.478;2023-07-28T12:51:46;99060.69;;;28.89;37.61
19594;BME280;9944;48.240;16.478;2023-07-28T12:55:55;99069.94;;;28.67;37.89
19594;BME280;9944;48.240;16.478;2023-07-28T13:00:04;99076.19;;;28.48;38.26
19594;BME280;9944;48.240;16.478;2023-07-28T13:04:17;99077.53;;;28.32;38.81
19594;BME280;9944;48.240;16.478;2023-07-28T13:08:20;99076.88;;;28.19;39.44
19594;BME280;9944;48.240;16.478;2023-07-28T13:12:28;99060.84;;;28.06;39.55
19594;BME280;9944;48.240;16.478;2023-07-28T13:16:35;99068.22;;;27.94;40.08
19594;BME280;9944;48.240;16.478;2023-07-28T13:20:40;99071.75;;;27.85;40.45
19594;BME280;9944;48.240;16.478;2023-07-28T13:24:43;99086.72;;;27.79;40.66
19594;BME280;9944;48.240;16.478;2023-07-28T13:28:48;99091.06;;;27.71;39.75
19594;BME280;9944;48.240;16.478;2023-07-28T13:32:51;99066.50;;;27.51;39.44
19594;BME280;9944;48.240;16.478;2023-07-28T13:36:55;99072.25;;;27.37;39.56
19594;BME280;9944;48.240;16.478;2023-07-28T13:40:59;99086.34;;;27.31;40.37
19594;BME280;9944;48.240;16.478;2023-07-28T13:45:06;99084.88;;;27.26;40.65
19594;BME280;9944;48.240;16.478;2023-07-28T13:49:09;99083.41;;;27.22;41.07
19594;BME280;9944;48.240;16.478;2023-07-28T13:53:21;99079.69;;;27.23;41.26
19594;BME280;9944;48.240;16.478;2023-07-28T13:57:27;99094.25;;;27.22;41.37
19594;BME280;9944;48.240;16.478;2023-07-28T14:01:32;99079.44;;;27.26;41.99
19594;BME280;9944;48.240;16.478;2023-07-28T14:05:36;99087.91;;;27.33;42.18
19594;BME280;9944;48.240;16.478;2023-07-28T14:09:40;99083.94;;;27.37;42.19
19594;BME280;9944;48.240;16.478;2023-07-28T14:13:43;99088.13;;;27.41;42.04
19594;BME280;9944;48.240;16.478;2023-07-28T14:17:48;99090.72;;;27.43;42.08
19594;BME280;9944;48.240;16.478;2023-07-28T14:21:51;99091.69;;;27.42;41.80
19594;BME280;9944;48.240;16.478;2023-07-28T14:25:55;99092.97;;;27.38;41.68
19594;BME280;9944;48.240;16.478;2023-07-28T14:29:59;99093.09;;;27.36;41.70
19594;BME280;9944;48.240;16.478;2023-07-28T14:34:04;99093.69;;;27.40;41.77
19594;BME280;9944;48.240;16.478;2023-07-28T14:38:07;99083.81;;;27.39;41.75
19594;BME280;9944;48.240;16.478;2023-07-28T14:42:11;99087.78;;;27.35;41.42
19594;BME280;9944;48.240;16.478;2023-07-28T14:46:14;99085.22;;;27.33;41.35
19594;BME280;9944;48.240;16.478;2023-07-28T14:50:20;99083.47;;;27.32;41.43
19594;BME280;9944;48.240;16.478;2023-07-28T14:54:24;99085.34;;;27.32;41.68
19594;BME280;9944;48.240;16.478;2023-07-28T14:58:28;99083.63;;;27.31;42.16
19594;BME280;9944;48.240;16.478;2023-07-28T15:02:33;99079.19;;;27.29;42.28
19594;BME280;9944;48.240;16.478;2023-07-28T15:06:39;99078.47;;;27.27;42.48
19594;BME280;9944;48.240;16.478;2023-07-28T15:10:46;99083.28;;;27.24;42.29
19594;BME280;9944;48.240;16.478;2023-07-28T15:14:50;99080.25;;;27.17;42.48
19594;BME280;9944;48.240;16.478;2023-07-28T15:18:54;99077.41;;;27.19;42.20
19594;BME280;9944;48.240;16.478;2023-07-28T15:22:59;99070.38;;;27.16;42.51
19594;BME280;9944;48.240;16.478;2023-07-28T15:27:02;99069.63;;;27.25;42.60
19594;BME280;9944;48.240;16.478;2023-07-28T15:31:06;99074.91;;;27.27;42.68
19594;BME280;9944;48.240;16.478;2023-07-28T15:35:10;99066.63;;;27.28;42.32
19594;BME280;9944;48.240;16.478;2023-07-28T15:39:14;99079.69;;;27.23;42.67
19594;BME280;9944;48.240;16.478;2023-07-28T15:43:18;99078.25;;;27.19;43.44
19594;BME280;9944;48.240;16.478;2023-07-28T15:47:21;99080.59;;;27.24;43.33
19594;BME280;9944;48.240;16.478;2023-07-28T15:51:25;99070.59;;;27.24;42.84
19594;BME280;9944;48.240;16.478;2023-07-28T15:55:30;99075.28;;;27.22;43.08
19594;BME280;9944;48.240;16.478;2023-07-28T15:59:33;99078.00;;;27.22;43.15
19594;BME280;9944;48.240;16.478;2023-07-28T16:03:37;99081.44;;;27.24;43.20
19594;BME280;9944;48.240;16.478;2023-07-28T16:07:41;99077.22;;;27.32;43.24
19594;BME280;9944;48.240;16.478;2023-07-28T16:11:45;99083.81;;;27.39;43.52
19594;BME280;9944;48.240;16.478;2023-07-28T16:15:49;99086.06;;;27.34;43.17
19594;BME280;9944;48.240;16.478;2023-07-28T16:19:53;99096.91;;;27.34;43.13
19594;BME280;9944;48.240;16.478;2023-07-28T16:23:56;99093.22;;;27.35;43.09
19594;BME280;9944;48.240;16.478;2023-07-28T16:28:01;99105.81;;;27.24;42.21
19594;BME280;9944;48.240;16.478;2023-07-28T16:32:05;99105.84;;;27.13;42.14
19594;BME280;9944;48.240;16.478;2023-07-28T16:36:11;99100.47;;;27.02;42.18
19594;BME280;9944;48.240;16.478;2023-07-28T16:40:15;99106.38;;;26.96;42.17
19594;BME280;9944;48.240;16.478;2023-07-28T16:44:20;99116.47;;;26.93;42.46
19594;BME280;9944;48.240;16.478;2023-07-28T16:48:23;99111.59;;;26.87;42.72
19594;BME280;9944;48.240;16.478;2023-07-28T16:52:27;99117.50;;;26.81;42.76
19594;BME280;9944;48.240;16.478;2023-07-28T16:56:30;99111.84;;;26.73;42.68
19594;BME280;9944;48.240;16.478;2023-07-28T17:00:35;99118.50;;;26.69;42.89
19594;BME280;9944;48.240;16.478;2023-07-28T17:04:39;99124.16;;;26.66;42.83
19594;BME280;9944;48.240;16.478;2023-07-28T17:08:42;99119.03;;;26.63;43.11
19594;BME280;9944;48.240;16.478;2023-07-28T17:12:46;99127.41;;;26.60;43.55
19594;BME280;9944;48.240;16.478;2023-07-28T17:16:54;99135.13;;;26.53;43.32
19594;BME280;9944;48.240;16.478;2023-07-28T17:20:58;99136.72;;;26.44;43.30
19594;BME280;9944;48.240;16.478;2023-07-28T17:25:02;99146.31;;;26.37;43.46
19594;BME280;9944;48.240;16.478;2023-07-28T17:29:05;99148.53;;;26.32;44.14
19594;BME280;9944;48.240;16.478;2023-07-28T17:33:10;99154.19;;;26.29;44.12
19594;BME280;9944;48.240;16.478;2023-07-28T17:37:14;99155.03;;;26.29;44.70
19594;BME280;9944;48.240;16.478;2023-07-28T17:41:17;99151.72;;;26.26;44.33
19594;BME280;9944;48.240;16.478;2023-07-28T17:45:21;99155.78;;;26.20;44.77
19594;BME280;9944;48.240;16.478;2023-07-28T17:49:26;99160.56;;;26.16;45.06
19594;BME280;9944;48.240;16.478;2023-07-28T17:53:29;99162.78;;;26.11;45.27
19594;BME280;9944;48.240;16.478;2023-07-28T17:57:33;99155.91;;;26.07;44.81
19594;BME280;9944;48.240;16.478;2023-07-28T18:01:36;99161.53;;;26.04;45.43
19594;BME280;9944;48.240;16.478;2023-07-28T18:05:41;99162.00;;;25.98;45.36
19594;BME280;9944;48.240;16.478;2023-07-28T18:09:45;99149.72;;;25.94;45.69
19594;BME280;9944;48.240;16.478;2023-07-28T18:13:53;99150.16;;;25.88;45.36
19594;BME280;9944;48.240;16.478;2023-07-28T18:17:56;99146.94;;;25.83;45.51
19594;BME280;9944;48.240;16.478;2023-07-28T18:22:02;99140.28;;;25.75;46.06
19594;BME280;9944;48.240;16.478;2023-07-28T18:26:05;99144.97;;;25.73;46.49
19594;BME280;9944;48.240;16.478;2023-07-28T18:30:10;99147.16;;;25.68;46.15
19594;BME280;9944;48.240;16.478;2023-07-28T18:34:15;99139.28;;;25.65;46.45
19594;BME280;9944;48.240;16.478;2023-07-28T18:38:20;99144.56;;;25.67;46.86
19594;BME280;9944;48.240;16.478;2023-07-28T18:42:24;99153.78;;;25.64;46.99
19594;BME280;9944;48.240;16.478;2023-07-28T18:46:27;99149.06;;;25.55;47.02
19594;BME280;9944;48.240;16.478;2023-07-28T18:50:30;99151.53;;;25.47;47.02
19594;BME280;9944;48.240;16.478;2023-07-28T18:54:35;99149.16;;;25.42;46.89
19594;BME280;9944;48.240;16.478;2023-07-28T18:58:39;99155.16;;;25.34;46.88
19594;BME280;9944;48.240;16.478;2023-07-28T19:02:43;99161.94;;;25.27;47.67
19594;BME280;9944;48.240;16.478;2023-07-28T19:06:47;99153.59;;;25.19;47.69
19594;BME280;9944;48.240;16.478;2023-07-28T19:10:52;99166.78;;;25.11;47.28
19594;BME280;9944;48.240;16.478;2023-07-28T19:14:55;99162.06;;;25.01;47.78
19594;BME280;9944;48.240;16.478;2023-07-28T19:18:59;99170.94;;;24.91;47.72
19594;BME280;9944;48.240;16.478;2023-07-28T19:23:02;99175.81;;;24.85;48.21
19594;BME280;9944;48.240;16.478;2023-07-28T19:27:07;99171.00;;;24.78;48.07
19594;BME280;9944;48.240;16.478;2023-07-28T19:31:11;99176.63;;;24.75;48.24
19594;BME280;9944;48.240;16.478;2023-07-28T19:35:14;99175.34;;;24.67;48.37
19594;BME280;9944;48.240;16.478;2023-07-28T19:39:19;99182.22;;;24.59;48.79
19594;BME280;9944;48.240;16.478;2023-07-28T19:43:24;99187.94;;;24.54;48.74
19594;BME280;9944;48.240;16.478;2023-07-28T19:47:27;99182.16;;;24.47;48.92
19594;BME280;9944;48.240;16.478;2023-07-28T19:51:31;99187.22;;;24.39;48.85
19594;BME280;9944;48.240;16.478;2023-07-28T19:55:35;99192.19;;;24.33;48.91
19594;BME280;9944;48.240;16.478;2023-07-28T19:59:40;99196.09;;;24.28;48.79
19594;BME280;9944;48.240;16.478;2023-07-28T20:03:43;99205.34;;;24.24;49.08
19594;BME280;9944;48.240;16.478;2023-07-28T20:07:47;99209.25;;;24.20;49.26
19594;BME280;9944;48.240;16.478;2023-07-28T20:11:51;99207.06;;;24.12;49.27
19594;BME280;9944;48.240;16.478;2023-07-28T20:15:56;99205.88;;;24.04;49.99
19594;BME280;9944;48.240;16.478;2023-07-28T20:19:59;99215.34;;;23.97;49.56
19594;BME280;9944;48.240;16.478;2023-07-28T20:24:03;99221.16;;;23.90;50.14
19594;BME280;9944;48.240;16.478;2023-07-28T20:28:06;99219.63;;;23.86;50.27
19594;BME280;9944;48.240;16.478;2023-07-28T20:32:12;99232.44;;;23.83;50.45
19594;BME280;9944;48.240;16.478;2023-07-28T20:36:16;99240.63;;;23.81;50.46
19594;BME280;9944;48.240;16.478;2023-07-28T20:40:19;99242.78;;;23.76;50.19
19594;BME280;9944;48.240;16.478;2023-07-28T20:44:23;99242.22;;;23.71;50.44
19594;BME280;9944;48.240;16.478;2023-07-28T20:48:28;99251.28;;;23.70;50.85
19594;BME280;9944;48.240;16.478;2023-07-28T20:52:31;99251.38;;;23.68;50.57
19594;BME280;9944;48.240;16.478;2023-07-28T20:56:35;99265.16;;;23.64;50.65
19594;BME280;9944;48.240;16.478;2023-07-28T21:00:39;99255.66;;;23.58;50.62
19594;BME280;9944;48.240;16.478;2023-07-28T21:04:44;99259.31;;;23.57;51.33
19594;BME280;9944;48.240;16.478;2023-07-28T21:08:48;99276.56;;;23.54;51.18
19594;BME280;9944;48.240;16.478;2023-07-28T21:12:51;99272.25;;;23.52;51.54
19594;BME280;9944;48.240;16.478;2023-07-28T21:16:55;99269.09;;;23.45;51.28
19594;BME280;9944;48.240;16.478;2023-07-28T21:21:00;99269.47;;;23.39;51.59
19594;BME280;9944;48.240;16.478;2023-07-28T21:25:04;99268.91;;;23.34;51.43
19594;BME280;9944;48.240;16.478;2023-07-28T21:29:08;99262.00;;;23.30;51.61
19594;BME280;9944;48.240;16.478;2023-07-28T21:33:12;99270.19;;;23.28;52.12
19594;BME280;9944;48.240;16.478;2023-07-28T21:37:17;99278.38;;;23.27;51.83